Time,TemperatureF,DewpointF,PressureIn,WindDirection,WindDirectionDegrees,WindSpeedMPH,WindSpeedGustMPH,Humidity,HourlyPrecipIn,Conditions,Clouds,dailyrainin,SolarRadiationWatts/m^2,SoftwareType,DateUTC
2013-01-26 00:21:00,34.0,34.0,-100.00,North,353,3.0,4.0,100,0.00,,,0.01,0.000000,,2013-01-26 07:21:00,
2013-01-26 00:33:00,34.0,34.0,-100.00,North,353,3.0,4.0,100,0.00,,,0.01,0.000000,,2013-01-26 07:33:00,
2013-01-26 00:41:00,34.0,34.0,-100.00,North,353,3.0,4.0,100,0.00,,,0.01,0.000000,,2013-01-26 07:41:00,
2013-01-26 00:51:00,34.0,34.0,-100.00,North,353,3.0,4.0,100,0.00,,,0.01,0.000000,,2013-01-26 07:51:00,
2013-01-26 01:21:00,36.0,36.0,-100.00,North,352,3.0,4.0,100,0.00,,,0.01,0.000000,,2013-01-26 08:21:00,
2013-01-26 01:31:00,36.0,36.0,-100.00,North,352,3.0,4.0,100,0.00,,,0.01,0.000000,,2013-01-26 08:31:00,
2013-01-26 01:42:00,36.0,36.0,-100.00,North,352,3.0,4.0,100,0.00,,,0.01,0.000000,,2013-01-26 08:42:00,
2013-01-26 01:53:00,36.0,36.0,-100.00,North,352,3.0,4.0,100,0.00,,,0.01,0.000000,,2013-01-26 08:53:00,
2013-01-26 02:22:00,33.0,33.0,-100.00,WNW,287,0.0,5.0,100,0.00,,,0.01,0.000000,,2013-01-26 09:22:00,
2013-01-26 02:31:00,33.0,33.0,-100.00,WNW,287,0.0,5.0,100,0.00,,,0.01,0.000000,,2013-01-26 09:31:00,
2013-01-26 02:42:00,33.0,33.0,-100.00,WNW,287,0.0,5.0,100,0.00,,,0.01,0.000000,,2013-01-26 09:42:00,
2013-01-26 02:51:00,33.0,33.0,-100.00,WNW,287,0.0,5.0,100,0.00,,,0.01,0.000000,,2013-01-26 09:51:00,
2013-01-26 03:21:00,35.0,35.0,-100.00,NE,56,0.0,4.0,100,0.00,,,0.01,0.000000,,2013-01-26 10:21:00,
2013-01-26 03:31:00,35.0,35.0,-100.00,NE,56,0.0,4.0,100,0.00,,,0.01,0.000000,,2013-01-26 10:31:00,
2013-01-26 03:42:00,35.0,35.0,-100.00,NE,56,0.0,4.0,100,0.00,,,0.01,0.000000,,2013-01-26 10:42:00,
2013-01-26 03:52:00,35.0,35.0,-100.00,NE,56,0.0,4.0,100,0.00,,,0.01,0.000000,,2013-01-26 10:52:00,
2013-01-26 04:22:00,34.0,34.0,-100.00,SSW,195,0.0,0.0,100,0.00,,,0.01,0.000000,,2013-01-26 11:22:00,
2013-01-26 04:32:00,34.0,34.0,-100.00,SSW,195,0.0,0.0,100,0.00,,,0.01,0.000000,,2013-01-26 11:32:00,
2013-01-26 04:42:00,34.0,34.0,-100.00,SSW,195,0.0,0.0,100,0.00,,,0.01,0.000000,,2013-01-26 11:42:00,
2013-01-26 04:52:00,34.0,34.0,-100.00,SSW,195,0.0,0.0,100,0.00,,,0.01,0.000000,,2013-01-26 11:52:00,
2013-01-26 05:22:00,33.0,33.0,-100.00,NW,326,1.0,4.0,100,0.00,,,0.01,0.000000,,2013-01-26 12:22:00,
2013-01-26 05:33:00,33.0,33.0,-100.00,NW,326,1.0,4.0,100,0.00,,,0.01,0.000000,,2013-01-26 12:33:00,
2013-01-26 05:42:00,33.0,33.0,-100.00,NW,326,1.0,4.0,100,0.00,,,0.01,0.000000,,2013-01-26 12:42:00,
2013-01-26 05:52:00,33.0,33.0,-100.00,NW,326,1.0,4.0,100,0.00,,,0.01,0.000000,,2013-01-26 12:52:00,
2013-01-26 06:22:00,32.0,32.0,-100.00,SW,234,0.0,3.0,100,-99.99,,,0.01,0.000000,,2013-01-26 13:22:00,
2013-01-26 06:32:00,32.0,32.0,-100.00,SW,234,0.0,3.0,100,-99.99,,,0.01,0.000000,,2013-01-26 13:32:00,
2013-01-26 06:42:00,32.0,32.0,-100.00,SW,234,0.0,3.0,100,-99.99,,,0.01,0.000000,,2013-01-26 13:42:00,
2013-01-26 06:52:00,32.0,32.0,-100.00,SW,234,0.0,3.0,100,-99.99,,,0.01,0.000000,,2013-01-26 13:52:00,
2013-01-26 07:21:00,34.0,34.0,-100.00,ENE,73,0.0,2.0,100,-99.99,,,0.01,0.000000,,2013-01-26 14:21:00,
2013-01-26 07:32:00,34.0,34.0,-100.00,ENE,73,0.0,2.0,100,-99.99,,,0.01,0.000000,,2013-01-26 14:32:00,
2013-01-26 07:42:00,34.0,34.0,-100.00,ENE,73,0.0,2.0,100,-99.99,,,0.01,0.000000,,2013-01-26 14:42:00,
2013-01-26 07:52:00,34.0,34.0,-100.00,ENE,73,0.0,2.0,100,-99.99,,,0.01,0.000000,,2013-01-26 14:52:00,
2013-01-26 08:22:00,34.0,34.0,-100.00,ESE,120,0.0,2.0,100,0.00,,,0.01,0.000000,,2013-01-26 15:22:00,
2013-01-26 08:32:00,34.0,34.0,-100.00,ESE,120,0.0,2.0,100,0.00,,,0.01,0.000000,,2013-01-26 15:32:00,
2013-01-26 08:43:00,34.0,34.0,-100.00,ESE,120,0.0,2.0,100,0.00,,,0.01,0.000000,,2013-01-26 15:43:00,
2013-01-26 08:52:00,34.0,34.0,-100.00,ESE,120,0.0,2.0,100,0.00,,,0.01,0.000000,,2013-01-26 15:52:00,
2013-01-26 09:22:00,34.0,34.0,-100.00,East,90,2.0,0.0,100,0.02,,,0.03,1.000000,,2013-01-26 16:22:00,
2013-01-26 09:32:00,34.0,34.0,-100.00,East,90,2.0,0.0,100,0.02,,,0.03,1.000000,,2013-01-26 16:32:00,
2013-01-26 09:42:00,34.0,34.0,-100.00,East,90,2.0,0.0,100,0.02,,,0.03,1.000000,,2013-01-26 16:42:00,
2013-01-26 09:52:00,34.0,34.0,-100.00,East,90,2.0,0.0,100,0.02,,,0.03,1.000000,,2013-01-26 16:52:00,
2013-01-26 10:22:00,33.0,33.0,-100.00,East,94,0.0,3.0,100,-99.99,,,0.07,20.000000,,2013-01-26 17:22:00,
2013-01-26 10:32:00,33.0,33.0,-100.00,East,94,0.0,3.0,100,-99.99,,,0.07,20.000000,,2013-01-26 17:32:00,
2013-01-26 10:42:00,33.0,33.0,-100.00,East,94,0.0,3.0,100,-99.99,,,0.07,20.000000,,2013-01-26 17:42:00,
2013-01-26 10:52:00,33.0,33.0,-100.00,East,94,0.0,3.0,100,-99.99,,,0.07,20.000000,,2013-01-26 17:52:00,
2013-01-26 11:22:00,35.0,35.0,-100.00,SW,220,0.0,3.0,100,-99.99,,,0.12,83.000000,,2013-01-26 18:22:00,
2013-01-26 11:32:00,35.0,35.0,-100.00,SW,220,0.0,3.0,100,-99.99,,,0.12,83.000000,,2013-01-26 18:32:00,
2013-01-26 11:42:00,35.0,35.0,-100.00,SW,220,0.0,3.0,100,-99.99,,,0.12,83.000000,,2013-01-26 18:42:00,
2013-01-26 11:52:00,35.0,35.0,-100.00,SW,220,0.0,3.0,100,-99.99,,,0.12,83.000000,,2013-01-26 18:52:00,
2013-01-26 12:22:00,38.0,38.0,-100.00,NW,308,2.0,2.0,100,0.02,,,0.14,198.000000,,2013-01-26 19:22:00,
2013-01-26 12:32:00,38.0,38.0,-100.00,NW,308,2.0,2.0,100,0.02,,,0.14,198.000000,,2013-01-26 19:32:00,
2013-01-26 12:42:00,38.0,38.0,-100.00,NW,308,2.0,2.0,100,0.02,,,0.14,198.000000,,2013-01-26 19:42:00,
2013-01-26 12:52:00,38.0,38.0,-100.00,NW,308,2.0,2.0,100,0.02,,,0.14,198.000000,,2013-01-26 19:52:00,
2013-01-26 13:21:00,38.0,38.0,-100.00,WNW,288,0.0,3.0,100,0.02,,,0.16,117.000000,,2013-01-26 20:21:00,
2013-01-26 13:32:00,38.0,38.0,-100.00,WNW,288,0.0,3.0,100,0.02,,,0.16,117.000000,,2013-01-26 20:32:00,
2013-01-26 13:42:00,38.0,38.0,-100.00,WNW,288,0.0,3.0,100,0.02,,,0.16,117.000000,,2013-01-26 20:42:00,
2013-01-26 13:52:00,38.0,38.0,-100.00,WNW,288,0.0,3.0,100,0.02,,,0.16,117.000000,,2013-01-26 20:52:00,
2013-01-26 14:22:00,37.0,37.0,-100.00,NNE,19,1.0,4.0,100,0.06,,,0.22,102.000000,,2013-01-26 21:22:00,
2013-01-26 14:32:00,37.0,37.0,-100.00,NNE,19,1.0,4.0,100,0.06,,,0.22,102.000000,,2013-01-26 21:32:00,
2013-01-26 14:42:00,37.0,37.0,-100.00,NNE,19,1.0,4.0,100,0.06,,,0.22,102.000000,,2013-01-26 21:42:00,
2013-01-26 14:51:00,37.0,37.0,-100.00,NNE,19,1.0,4.0,100,0.06,,,0.22,102.000000,,2013-01-26 21:51:00,
2013-01-26 15:21:00,38.0,38.0,-100.00,SW,236,0.0,2.0,100,0.06,,,0.28,92.000000,,2013-01-26 22:21:00,
2013-01-26 15:31:00,38.0,38.0,-100.00,SW,236,0.0,2.0,100,0.06,,,0.28,92.000000,,2013-01-26 22:31:00,
2013-01-26 15:42:00,38.0,38.0,-100.00,SW,236,0.0,2.0,100,0.06,,,0.28,92.000000,,2013-01-26 22:42:00,
2013-01-26 15:51:00,38.0,38.0,-100.00,SW,236,0.0,2.0,100,0.06,,,0.28,92.000000,,2013-01-26 22:51:00,
2013-01-26 16:21:00,38.0,38.0,-100.00,West,263,0.0,2.0,100,0.08,,,0.36,58.000000,,2013-01-26 23:21:00,
2013-01-26 16:32:00,38.0,38.0,-100.00,West,263,0.0,2.0,100,0.08,,,0.36,58.000000,,2013-01-26 23:32:00,
2013-01-26 16:41:00,38.0,38.0,-100.00,West,263,0.0,2.0,100,0.08,,,0.36,58.000000,,2013-01-26 23:41:00,
2013-01-26 16:52:00,38.0,38.0,-100.00,West,263,0.0,2.0,100,0.08,,,0.36,58.000000,,2013-01-26 23:52:00,
2013-01-26 17:21:00,38.0,38.0,-100.00,WSW,245,0.0,1.0,100,0.06,,,0.42,44.000000,,2013-01-27 00:21:00,
2013-01-26 17:32:00,38.0,38.0,-100.00,WSW,245,0.0,1.0,100,0.06,,,0.42,44.000000,,2013-01-27 00:32:00,
2013-01-26 17:41:00,38.0,38.0,-100.00,WSW,245,0.0,1.0,100,0.06,,,0.42,44.000000,,2013-01-27 00:41:00,
2013-01-26 17:51:00,38.0,38.0,-100.00,WSW,245,0.0,1.0,100,0.06,,,0.42,44.000000,,2013-01-27 00:51:00,
2013-01-26 18:22:00,37.0,37.0,-100.00,East,93,0.0,2.0,100,0.08,,,0.50,17.000000,,2013-01-27 01:22:00,
2013-01-26 18:32:00,37.0,37.0,-100.00,East,93,0.0,2.0,100,0.08,,,0.50,17.000000,,2013-01-27 01:32:00,
2013-01-26 18:41:00,37.0,37.0,-100.00,East,93,0.0,2.0,100,0.08,,,0.50,17.000000,,2013-01-27 01:41:00,
2013-01-26 18:51:00,37.0,37.0,-100.00,East,93,0.0,2.0,100,0.08,,,0.50,17.000000,,2013-01-27 01:51:00,
2013-01-26 19:21:00,35.0,35.0,-100.00,SW,225,0.0,0.0,100,0.07,,,0.57,2.000000,,2013-01-27 02:21:00,
2013-01-26 19:31:00,35.0,35.0,-100.00,SW,225,0.0,0.0,100,0.07,,,0.57,2.000000,,2013-01-27 02:31:00,
2013-01-26 19:41:00,35.0,35.0,-100.00,SW,225,0.0,0.0,100,0.07,,,0.57,2.000000,,2013-01-27 02:41:00,
2013-01-26 19:52:00,35.0,35.0,-100.00,SW,225,0.0,0.0,100,0.07,,,0.57,2.000000,,2013-01-27 02:52:00,
2013-01-26 20:21:00,34.0,34.0,-100.00,WNW,291,0.0,3.0,100,0.11,,,0.68,0.000000,,2013-01-27 03:21:00,
2013-01-26 20:31:00,34.0,34.0,-100.00,WNW,291,0.0,3.0,100,0.11,,,0.68,0.000000,,2013-01-27 03:31:00,
2013-01-26 20:41:00,34.0,34.0,-100.00,WNW,291,0.0,3.0,100,0.11,,,0.68,0.000000,,2013-01-27 03:41:00,
2013-01-26 20:51:00,34.0,34.0,-100.00,WNW,291,0.0,3.0,100,0.11,,,0.68,0.000000,,2013-01-27 03:51:00,
2013-01-26 21:21:00,32.0,32.0,-100.00,SW,214,0.0,8.0,100,0.08,,,0.76,0.000000,,2013-01-27 04:21:00,
2013-01-26 21:31:00,32.0,32.0,-100.00,SW,214,0.0,8.0,100,0.08,,,0.76,0.000000,,2013-01-27 04:31:00,
2013-01-26 21:41:00,32.0,32.0,-100.00,SW,214,0.0,8.0,100,0.08,,,0.76,0.000000,,2013-01-27 04:41:00,
2013-01-26 21:51:00,32.0,32.0,-100.00,SW,214,0.0,8.0,100,0.08,,,0.76,0.000000,,2013-01-27 04:51:00,
2013-01-26 22:22:00,33.0,33.0,-100.00,SE,134,0.0,3.0,100,0.04,,,0.80,0.000000,,2013-01-27 05:22:00,
2013-01-26 22:32:00,33.0,33.0,-100.00,SE,134,0.0,3.0,100,0.04,,,0.80,0.000000,,2013-01-27 05:32:00,
2013-01-26 22:41:00,33.0,33.0,-100.00,SE,134,0.0,3.0,100,0.04,,,0.80,0.000000,,2013-01-27 05:41:00,
2013-01-26 22:51:00,33.0,33.0,-100.00,SE,134,0.0,3.0,100,0.04,,,0.80,0.000000,,2013-01-27 05:51:00,
2013-01-26 23:21:00,33.0,33.0,-100.00,ENE,65,0.0,0.0,100,0.03,,,0.83,0.000000,,2013-01-27 06:21:00,
2013-01-26 23:31:00,33.0,33.0,-100.00,ENE,65,0.0,0.0,100,0.03,,,0.83,0.000000,,2013-01-27 06:31:00,
2013-01-26 23:41:00,33.0,33.0,-100.00,ENE,65,0.0,0.0,100,0.03,,,0.83,0.000000,,2013-01-27 06:41:00,
2013-01-26 23:51:00,33.0,33.0,-100.00,ENE,65,0.0,0.0,100,0.03,,,0.83,0.000000,,2013-01-27 06:51:00,